createdAt,value
2018-09-14T00:00:38.635Z,4.40
2018-09-14T00:01:42.646Z,5.03
2018-09-14T00:02:46.891Z,4.97
2018-09-14T00:03:50.979Z,5.17
2018-09-14T00:04:55.006Z,5.37
2018-09-14T00:05:59.046Z,9.38
2018-09-14T00:07:03.066Z,4.65
2018-09-14T00:08:07.165Z,5.00
2018-09-14T00:09:12.706Z,5.33
2018-09-14T00:10:16.770Z,5.25
2018-09-14T00:11:20.767Z,5.67
2018-09-14T00:12:24.899Z,5.85
2018-09-14T00:13:28.918Z,5.80
2018-09-14T00:14:33.014Z,6.03
2018-09-14T00:15:37.195Z,6.28
2018-09-14T00:16:41.233Z,6.25
2018-09-14T00:17:45.221Z,6.45
2018-09-14T00:18:49.217Z,6.00
2018-09-14T00:19:53.277Z,6.33
2018-09-14T00:20:57.465Z,6.25
2018-09-14T00:22:01.489Z,6.12
2018-09-14T00:23:05.596Z,6.20
2018-09-14T00:24:09.567Z,6.70
2018-09-14T00:25:13.567Z,6.55
2018-09-14T00:26:17.584Z,6.30
2018-09-14T00:27:21.619Z,7.60
2018-09-14T00:28:25.632Z,6.85
2018-09-14T00:29:29.877Z,6.47
2018-09-14T00:30:33.883Z,7.12
2018-09-14T00:31:37.901Z,7.62
2018-09-14T00:32:41.958Z,7.37
2018-09-14T00:33:46.017Z,6.87
2018-09-14T00:34:50.011Z,7.05
2018-09-14T00:35:54.170Z,6.72
2018-09-14T00:36:58.178Z,7.15
2018-09-14T00:38:02.225Z,7.20
2018-09-14T00:39:08.125Z,7.40
2018-09-14T00:40:12.146Z,7.05
2018-09-14T00:41:16.246Z,7.25
2018-09-14T00:42:20.254Z,7.33
2018-09-14T00:43:31.034Z,8.30
2018-09-14T00:44:35.037Z,7.55
2018-09-14T00:45:39.053Z,8.35
2018-09-14T00:46:43.108Z,7.75
2018-09-14T00:47:47.110Z,7.17
2018-09-14T00:48:51.127Z,7.30
2018-09-14T00:49:55.329Z,8.38
2018-09-14T00:50:59.355Z,7.83
2018-09-14T00:52:03.358Z,7.50
2018-09-14T00:53:07.402Z,8.63
2018-09-14T00:54:11.414Z,8.23
2018-09-14T00:55:15.411Z,7.90
2018-09-14T00:56:19.425Z,7.58
2018-09-14T00:57:23.450Z,7.75
2018-09-14T00:58:27.467Z,7.80
2018-09-14T00:59:31.607Z,7.83
2018-09-14T01:00:35.638Z,7.72
2018-09-14T01:01:39.669Z,7.92
2018-09-14T01:02:43.691Z,8.45
2018-09-14T01:03:47.807Z,8.30
2018-09-14T01:04:51.762Z,9.03
2018-09-14T01:05:55.803Z,8.23
2018-09-14T01:06:59.827Z,7.47
2018-09-14T01:08:03.850Z,8.93
2018-09-14T01:09:13.086Z,8.50
2018-09-14T01:10:17.130Z,8.15
2018-09-14T01:11:21.138Z,8.33
2018-09-14T01:12:25.175Z,8.63
2018-09-14T01:13:29.182Z,8.88
2018-09-14T01:14:33.244Z,8.70
2018-09-14T01:15:37.249Z,7.90
2018-09-14T01:16:41.462Z,8.10
2018-09-14T01:17:45.495Z,8.30
2018-09-14T01:18:49.497Z,8.13
2018-09-14T01:19:53.587Z,8.73
2018-09-14T01:20:57.554Z,8.38
2018-09-14T01:22:01.578Z,8.50
2018-09-14T01:23:05.642Z,7.33
2018-09-14T01:24:09.757Z,8.00
2018-09-14T01:25:13.772Z,7.75
2018-09-14T01:26:17.836Z,7.97
2018-09-14T01:27:21.845Z,7.08
2018-09-14T01:28:26.026Z,8.03
2018-09-14T01:29:30.107Z,7.30
2018-09-14T01:30:34.122Z,7.95
2018-09-14T01:31:38.133Z,7.97
2018-09-14T01:32:42.174Z,7.25
2018-09-14T01:33:46.213Z,7.33
2018-09-14T01:34:50.197Z,7.58
2018-09-14T01:35:59.643Z,7.85
2018-09-14T01:37:03.696Z,7.20
2018-09-14T01:38:07.667Z,7.42
2018-09-14T01:39:12.789Z,7.30
2018-09-14T01:40:16.781Z,6.75
2018-09-14T01:41:20.775Z,6.47
2018-09-14T01:42:24.796Z,6.87
2018-09-14T01:43:28.873Z,6.60
2018-09-14T01:44:32.874Z,6.25
2018-09-14T01:45:36.876Z,5.75
2018-09-14T01:46:40.878Z,5.92
2018-09-14T01:47:44.903Z,6.05
2018-09-14T01:48:48.905Z,5.92
2018-09-14T01:49:52.891Z,5.92
2018-09-14T01:50:56.884Z,6.00
2018-09-14T01:52:01.183Z,5.85
2018-09-14T01:53:05.166Z,5.60
2018-09-14T01:54:09.222Z,5.22
2018-09-14T01:55:13.238Z,5.67
2018-09-14T01:56:17.251Z,6.00
2018-09-14T01:57:21.239Z,5.60
2018-09-14T01:58:25.282Z,5.67
2018-09-14T01:59:29.308Z,4.80
2018-09-14T02:00:33.342Z,5.10
2018-09-14T02:01:37.338Z,6.00
2018-09-14T02:02:41.346Z,5.17
2018-09-14T02:03:45.694Z,5.60
2018-09-14T02:04:50.471Z,6.33
2018-09-14T02:05:54.503Z,5.78
2018-09-14T02:06:58.505Z,5.25
2018-09-14T02:08:02.711Z,5.80
2018-09-14T02:09:08.235Z,5.00
2018-09-14T02:10:16.454Z,4.90
2018-09-14T02:11:20.555Z,5.35
2018-09-14T02:12:24.594Z,5.28
2018-09-14T02:13:28.610Z,5.80
2018-09-14T02:14:32.626Z,5.08
2018-09-14T02:15:36.634Z,5.40
2018-09-14T02:16:40.623Z,5.53
2018-09-14T02:17:44.660Z,5.85
2018-09-14T02:18:48.634Z,6.35
2018-09-14T02:19:52.741Z,5.97
2018-09-14T02:20:56.755Z,5.83
2018-09-14T02:22:00.778Z,5.80
2018-09-14T02:23:04.801Z,5.65
2018-09-14T02:24:08.819Z,6.17
2018-09-14T02:25:12.967Z,5.95
2018-09-14T02:26:16.973Z,6.20
2018-09-14T02:27:21.121Z,5.90
2018-09-14T02:28:25.183Z,5.40
2018-09-14T02:29:29.221Z,6.00
2018-09-14T02:30:33.242Z,4.90
2018-09-14T02:31:37.326Z,5.10
2018-09-14T02:32:41.388Z,4.85
2018-09-14T02:33:45.378Z,4.67
2018-09-14T02:34:49.379Z,5.00
2018-09-14T02:35:53.456Z,5.65
2018-09-14T02:36:58.007Z,6.12
2018-09-14T02:38:02.051Z,5.45
2018-09-14T02:39:07.339Z,5.20
2018-09-14T02:40:11.363Z,5.45
2018-09-14T02:41:15.402Z,5.17
2018-09-14T02:42:19.425Z,5.10
2018-09-14T02:43:23.482Z,5.33
2018-09-14T02:44:29.650Z,5.67
2018-09-14T02:45:33.656Z,5.25
2018-09-14T02:46:37.674Z,5.30
2018-09-14T02:47:41.663Z,5.20
2018-09-14T02:48:45.670Z,4.90
2018-09-14T02:49:49.692Z,5.20
2018-09-14T02:50:53.734Z,4.83
2018-09-14T02:51:57.746Z,4.80
2018-09-14T02:53:01.763Z,5.25
2018-09-14T02:54:05.799Z,4.87
2018-09-14T02:55:09.890Z,5.05
2018-09-14T02:56:13.899Z,5.55
2018-09-14T02:57:17.905Z,4.80
2018-09-14T02:58:21.982Z,4.62
2018-09-14T02:59:26.014Z,4.85
2018-09-14T03:00:30.087Z,4.80
2018-09-14T03:01:34.119Z,4.42
2018-09-14T03:02:38.159Z,4.30
2018-09-14T03:03:42.247Z,4.50
2018-09-14T03:04:46.291Z,4.75
2018-09-14T03:05:50.304Z,4.75
2018-09-14T03:06:54.322Z,4.22
2018-09-14T03:07:58.335Z,4.78
2018-09-14T03:09:02.343Z,4.47
2018-09-14T03:10:06.449Z,4.53
2018-09-14T03:11:10.509Z,4.37
2018-09-14T03:12:14.515Z,4.33
2018-09-14T03:13:18.525Z,4.60
2018-09-14T03:14:22.573Z,4.60
2018-09-14T03:15:26.568Z,4.45
2018-09-14T03:16:30.591Z,5.17
2018-09-14T03:17:34.629Z,4.87
2018-09-14T03:18:38.671Z,4.37
2018-09-14T03:19:42.770Z,4.83
2018-09-14T03:20:46.788Z,4.33
2018-09-14T03:21:51.198Z,4.72
2018-09-14T03:22:55.324Z,4.37
2018-09-14T03:23:59.530Z,4.42
2018-09-14T03:25:03.799Z,4.28
2018-09-14T03:26:07.915Z,4.17
2018-09-14T03:27:12.040Z,5.25
2018-09-14T03:28:16.194Z,4.00
2018-09-14T03:29:20.281Z,4.47
2018-09-14T03:30:24.312Z,4.12
2018-09-14T03:31:28.360Z,4.03
2018-09-14T03:32:32.461Z,3.85
2018-09-14T03:33:36.536Z,4.30
2018-09-14T03:34:40.672Z,3.77
2018-09-14T03:35:44.806Z,3.80
2018-09-14T03:36:49.080Z,3.87
2018-09-14T03:37:53.248Z,4.47
2018-09-14T03:38:57.347Z,4.22
2018-09-14T03:40:01.466Z,4.03
2018-09-14T03:41:05.704Z,3.90
2018-09-14T03:42:09.802Z,3.70
2018-09-14T03:43:13.906Z,3.92
2018-09-14T03:44:17.983Z,3.95
2018-09-14T03:45:22.206Z,4.15
2018-09-14T03:46:26.301Z,4.03
2018-09-14T03:47:30.407Z,4.40
2018-09-14T03:48:34.597Z,4.70
2018-09-14T03:49:38.684Z,4.30
2018-09-14T03:50:42.752Z,4.28
2018-09-14T03:51:46.978Z,4.42
2018-09-14T03:52:51.059Z,4.92
2018-09-14T03:53:55.254Z,4.33
2018-09-14T03:54:59.325Z,3.65
2018-09-14T03:56:03.435Z,4.65
2018-09-14T03:57:07.593Z,4.22
2018-09-14T03:58:11.710Z,4.12
2018-09-14T03:59:15.976Z,4.53
2018-09-14T04:00:20.357Z,3.62
2018-09-14T04:01:24.699Z,5.67
2018-09-14T04:02:28.789Z,4.30
2018-09-14T04:03:32.942Z,3.80
2018-09-14T04:04:37.369Z,4.83
2018-09-14T04:05:41.501Z,4.17
2018-09-14T04:06:45.595Z,3.92
2018-09-14T04:07:49.665Z,4.08
2018-09-14T04:08:53.719Z,3.70
2018-09-14T04:09:57.833Z,4.28
2018-09-14T04:11:01.974Z,4.20
2018-09-14T04:12:06.171Z,4.05
2018-09-14T04:13:10.228Z,4.60
2018-09-14T04:14:14.297Z,3.90
2018-09-14T04:15:18.460Z,4.47
2018-09-14T04:16:22.598Z,4.37
2018-09-14T04:17:26.815Z,4.22
2018-09-14T04:18:30.983Z,4.08
2018-09-14T04:19:35.073Z,4.60
2018-09-14T04:20:39.215Z,4.35
2018-09-14T04:21:43.352Z,4.50
2018-09-14T04:22:47.423Z,4.03
2018-09-14T04:23:51.490Z,4.42
2018-09-14T04:24:55.635Z,4.28
2018-09-14T04:25:59.730Z,4.62
2018-09-14T04:27:03.828Z,3.83
2018-09-14T04:28:08.044Z,3.90
2018-09-14T04:29:12.172Z,4.10
2018-09-14T04:30:16.326Z,4.58
2018-09-14T04:31:20.406Z,4.12
2018-09-14T04:32:24.507Z,4.62
2018-09-14T04:33:28.855Z,4.12
2018-09-14T04:34:32.966Z,4.28
2018-09-14T04:35:37.076Z,4.65
2018-09-14T04:36:41.142Z,4.22
2018-09-14T04:37:45.239Z,4.50
2018-09-14T04:38:49.308Z,4.50
2018-09-14T04:39:53.502Z,4.35
2018-09-14T04:40:57.676Z,4.53
2018-09-14T04:42:01.796Z,4.17
2018-09-14T04:43:05.937Z,4.00
2018-09-14T04:44:10.073Z,4.37
2018-09-14T04:45:14.147Z,4.08
2018-09-14T04:46:18.265Z,4.12
2018-09-14T04:47:22.384Z,4.22
2018-09-14T04:48:26.513Z,4.72
2018-09-14T04:49:30.629Z,4.47
2018-09-14T04:50:34.798Z,4.05
2018-09-14T04:51:38.978Z,5.03
2018-09-14T04:52:43.036Z,4.00
2018-09-14T04:53:47.125Z,3.90
2018-09-14T04:54:51.326Z,4.17
2018-09-14T04:55:55.396Z,4.10
2018-09-14T04:56:59.555Z,3.72
2018-09-14T04:58:03.751Z,4.03
2018-09-14T04:59:08.062Z,3.87
2018-09-14T05:00:12.272Z,4.40
2018-09-14T05:01:16.577Z,4.40
2018-09-14T05:02:20.673Z,4.67
2018-09-14T05:03:24.916Z,3.92
2018-09-14T05:04:29.051Z,4.17
2018-09-14T05:05:33.133Z,3.90
2018-09-14T05:06:37.235Z,5.33
2018-09-14T05:07:41.327Z,4.15
2018-09-14T05:08:45.525Z,4.00
2018-09-14T05:09:49.568Z,4.55
2018-09-14T05:10:53.778Z,3.80
2018-09-14T05:11:57.829Z,4.28
2018-09-14T05:13:01.983Z,4.47
2018-09-14T05:14:06.087Z,4.30
2018-09-14T05:15:10.285Z,4.78
2018-09-14T05:16:14.341Z,4.97
2018-09-14T05:17:18.647Z,4.33
2018-09-14T05:18:22.901Z,4.40
2018-09-14T05:19:27.000Z,4.30
2018-09-14T05:20:31.408Z,3.95
2018-09-14T05:21:35.540Z,4.25
2018-09-14T05:22:39.622Z,4.67
2018-09-14T05:23:43.672Z,3.60
2018-09-14T05:24:47.744Z,4.17
2018-09-14T05:25:51.856Z,4.15
2018-09-14T05:26:55.920Z,3.75
2018-09-14T05:27:59.999Z,3.90
2018-09-14T05:29:04.119Z,3.87
2018-09-14T05:30:08.309Z,3.65
2018-09-14T05:31:12.546Z,3.87
2018-09-14T05:32:16.716Z,4.45
2018-09-14T05:33:21.717Z,4.22
2018-09-14T05:34:25.820Z,4.50
2018-09-14T05:35:29.901Z,4.12
2018-09-14T05:36:34.122Z,3.47
2018-09-14T05:37:38.246Z,4.47
2018-09-14T05:38:42.350Z,4.00
2018-09-14T05:39:46.811Z,3.80
2018-09-14T05:40:50.989Z,3.72
2018-09-14T05:41:55.343Z,3.90
2018-09-14T05:42:59.422Z,4.15
2018-09-14T05:44:03.639Z,3.50
2018-09-14T05:45:07.788Z,4.17
2018-09-14T05:46:11.857Z,3.10
2018-09-14T05:47:15.974Z,3.55
2018-09-14T05:48:20.014Z,3.60
2018-09-14T05:49:24.074Z,3.58
2018-09-14T05:50:28.179Z,3.47
2018-09-14T05:51:32.258Z,3.30
2018-09-14T05:52:36.424Z,3.90
2018-09-14T05:53:40.512Z,3.77
2018-09-14T05:54:44.563Z,3.42
2018-09-14T05:55:48.653Z,4.10
2018-09-14T05:56:52.868Z,4.03
2018-09-14T05:57:59.063Z,3.98
2018-09-14T05:59:03.170Z,3.75
2018-09-14T06:00:07.337Z,3.33
2018-09-14T06:01:11.458Z,4.00
2018-09-14T06:02:15.694Z,4.15
2018-09-14T06:03:19.888Z,3.72
2018-09-14T06:04:24.016Z,3.50
2018-09-14T06:05:28.108Z,3.58
2018-09-14T06:06:32.307Z,4.00
2018-09-14T06:07:36.571Z,3.60
2018-09-14T06:08:40.830Z,4.10
2018-09-14T06:09:44.954Z,3.87
2018-09-14T06:10:49.089Z,3.85
2018-09-14T06:11:53.137Z,3.62
2018-09-14T06:12:57.224Z,3.87
2018-09-14T06:14:01.287Z,3.58
2018-09-14T06:15:05.466Z,3.52
2018-09-14T06:16:09.556Z,3.55
2018-09-14T06:17:13.774Z,3.75
2018-09-14T06:18:17.962Z,3.02
2018-09-14T06:19:22.058Z,3.40
2018-09-14T06:20:26.173Z,3.65
2018-09-14T06:21:30.364Z,3.55
2018-09-14T06:22:34.662Z,3.30
2018-09-14T06:23:38.738Z,4.10
2018-09-14T06:24:43.024Z,3.20
2018-09-14T06:25:47.207Z,3.50
2018-09-14T06:26:51.322Z,3.65
2018-09-14T06:27:55.464Z,4.42
2018-09-14T06:28:59.644Z,3.62
2018-09-14T06:30:03.888Z,3.90
2018-09-14T06:31:08.024Z,3.90
2018-09-14T06:32:12.232Z,3.70
2018-09-14T06:33:16.332Z,4.33
2018-09-14T06:34:20.624Z,3.42
2018-09-14T06:35:24.758Z,3.72
2018-09-14T06:36:28.900Z,3.58
2018-09-14T06:37:32.975Z,4.05
2018-09-14T06:38:37.135Z,3.87
2018-09-14T06:39:41.288Z,3.72
2018-09-14T06:40:45.532Z,3.58
2018-09-14T06:41:49.622Z,3.77
2018-09-14T06:42:53.758Z,3.72
2018-09-14T06:43:57.904Z,3.90
2018-09-14T06:45:02.069Z,3.42
2018-09-14T06:46:06.193Z,3.80
2018-09-14T06:47:10.324Z,3.25
2018-09-14T06:48:14.416Z,3.75
2018-09-14T06:49:18.578Z,3.55
2018-09-14T06:50:22.756Z,3.40
2018-09-14T06:51:27.196Z,3.70
2018-09-14T06:52:31.316Z,3.30
2018-09-14T06:53:35.500Z,3.55
2018-09-14T06:54:39.603Z,3.58
2018-09-14T06:55:43.723Z,3.70
2018-09-14T06:56:47.859Z,3.42
2018-09-14T06:57:51.932Z,3.27
2018-09-14T06:58:56.060Z,3.50
2018-09-14T07:00:00.198Z,3.33
2018-09-14T07:01:04.253Z,3.90
2018-09-14T07:02:08.537Z,3.47
2018-09-14T07:03:12.588Z,4.25
2018-09-14T07:04:16.831Z,3.65
2018-09-14T07:05:20.974Z,3.72
2018-09-14T07:06:25.509Z,3.70
2018-09-14T07:07:29.640Z,3.30
2018-09-14T07:08:33.857Z,3.30
2018-09-14T07:09:38.007Z,3.70
2018-09-14T07:10:42.500Z,3.17
2018-09-14T07:11:46.560Z,3.37
2018-09-14T07:12:50.630Z,3.40
2018-09-14T07:13:54.882Z,3.37
2018-09-14T07:14:59.039Z,4.12
2018-09-14T07:16:05.036Z,3.58
2018-09-14T07:17:09.126Z,3.55
2018-09-14T07:18:13.261Z,4.00
2018-09-14T07:19:17.350Z,3.42
2018-09-14T07:20:21.580Z,3.62
2018-09-14T07:21:25.673Z,3.50
2018-09-14T07:22:29.737Z,3.52
2018-09-14T07:23:33.897Z,3.58
2018-09-14T07:24:38.191Z,3.42
2018-09-14T07:25:42.340Z,3.83
2018-09-14T07:26:46.586Z,3.50
2018-09-14T07:27:50.984Z,3.52
2018-09-14T07:28:55.232Z,4.65
2018-09-14T07:29:59.403Z,3.47
2018-09-14T07:31:03.402Z,3.52
2018-09-14T07:32:07.720Z,3.80
2018-09-14T07:33:11.890Z,3.60
2018-09-14T07:34:16.039Z,3.58
2018-09-14T07:35:20.210Z,3.47
2018-09-14T07:36:24.552Z,4.10
2018-09-14T07:37:28.595Z,4.33
2018-09-14T07:38:32.733Z,4.00
2018-09-14T07:39:37.414Z,3.52
2018-09-14T07:40:41.762Z,5.67
2018-09-14T07:41:45.890Z,3.90
2018-09-14T07:42:49.980Z,3.70
2018-09-14T07:43:54.105Z,3.50
2018-09-14T07:44:58.308Z,4.67
2018-09-14T07:46:02.345Z,3.90
2018-09-14T07:47:06.537Z,3.77
2018-09-14T07:48:10.807Z,3.75
2018-09-14T07:49:14.967Z,3.65
2018-09-14T07:50:19.064Z,3.90
2018-09-14T07:51:23.144Z,5.80
2018-09-14T07:52:27.376Z,3.62
2018-09-14T07:53:31.481Z,4.00
2018-09-14T07:54:35.615Z,3.85
2018-09-14T07:55:39.752Z,3.58
2018-09-14T07:56:44.089Z,4.83
2018-09-14T07:57:48.209Z,3.98
2018-09-14T07:58:52.482Z,3.65
2018-09-14T07:59:56.614Z,3.72
2018-09-14T08:01:00.971Z,3.60
2018-09-14T08:02:05.082Z,4.58
2018-09-14T08:03:09.169Z,4.28
2018-09-14T08:04:13.305Z,4.22
2018-09-14T08:05:18.278Z,4.08
2018-09-14T08:06:22.608Z,3.95
2018-09-14T08:07:26.765Z,3.62
2018-09-14T08:08:31.137Z,4.25
2018-09-14T08:09:35.315Z,4.10
2018-09-14T08:10:39.374Z,3.95
2018-09-14T08:11:43.700Z,3.85
2018-09-14T08:12:47.994Z,3.62
2018-09-14T08:13:52.104Z,3.90
2018-09-14T08:14:56.224Z,3.85
2018-09-14T08:16:00.296Z,4.25
2018-09-14T08:17:04.419Z,4.10
2018-09-14T08:18:08.576Z,4.08
2018-09-14T08:19:12.813Z,3.95
2018-09-14T08:20:17.080Z,3.65
2018-09-14T08:21:21.622Z,3.95
2018-09-14T08:22:25.746Z,3.85
2018-09-14T08:23:29.867Z,3.92
2018-09-14T08:24:34.383Z,3.75
2018-09-14T08:25:38.687Z,4.08
2018-09-14T08:26:43.276Z,4.15
2018-09-14T08:27:47.399Z,3.80
2018-09-14T08:28:51.640Z,3.80
2018-09-14T08:29:55.711Z,3.55
2018-09-14T08:31:06.686Z,3.83
2018-09-14T08:32:10.771Z,4.58
2018-09-14T08:33:14.908Z,3.50
2018-09-14T08:34:18.982Z,4.20
2018-09-14T08:35:23.298Z,3.83
2018-09-14T08:36:27.640Z,4.10
2018-09-14T08:37:31.726Z,3.70
2018-09-14T08:38:35.888Z,4.08
2018-09-14T08:39:40.033Z,3.72
2018-09-14T08:40:44.155Z,3.52
2018-09-14T08:41:48.394Z,3.52
2018-09-14T08:42:52.576Z,3.25
2018-09-14T08:43:56.780Z,4.15
2018-09-14T08:45:00.884Z,3.30
2018-09-14T08:46:05.006Z,3.47
2018-09-14T08:47:09.813Z,3.30
2018-09-14T08:48:14.001Z,3.62
2018-09-14T08:49:18.436Z,3.02
2018-09-14T08:50:22.797Z,3.15
2018-09-14T08:51:27.703Z,3.87
2018-09-14T08:52:32.047Z,3.20
2018-09-14T08:53:36.183Z,3.42
2018-09-14T08:54:40.376Z,4.62
2018-09-14T08:55:44.445Z,2.98
2018-09-14T08:56:48.758Z,2.90
2018-09-14T08:57:52.860Z,2.72
2018-09-14T08:58:57.210Z,3.92
2018-09-14T09:00:01.818Z,3.58
2018-09-14T09:01:06.599Z,3.27
2018-09-14T09:02:10.722Z,2.70
2018-09-14T09:03:14.948Z,2.72
2018-09-14T09:04:19.107Z,3.00
2018-09-14T09:05:24.151Z,3.30
2018-09-14T09:06:28.307Z,3.17
2018-09-14T09:07:32.462Z,2.80
2018-09-14T09:08:36.623Z,3.15
2018-09-14T09:09:40.782Z,2.98
2018-09-14T09:10:44.948Z,3.25
2018-09-14T09:11:49.113Z,7.15
2018-09-14T09:12:53.214Z,2.98
2018-09-14T09:13:57.464Z,2.85
2018-09-14T09:15:01.549Z,3.45
2018-09-14T09:16:05.700Z,3.62
2018-09-14T09:17:09.848Z,3.10
2018-09-14T09:18:13.920Z,2.67
2018-09-14T09:19:18.191Z,3.33
2018-09-14T09:20:22.358Z,3.40
2018-09-14T09:21:26.549Z,3.02
2018-09-14T09:22:30.690Z,2.90
2018-09-14T09:23:34.865Z,2.90
2018-09-14T09:24:39.012Z,3.27
2018-09-14T09:25:43.037Z,2.87
2018-09-14T09:26:47.130Z,2.80
2018-09-14T09:27:51.229Z,2.75
2018-09-14T09:28:55.371Z,2.92
2018-09-14T09:29:59.540Z,2.85
2018-09-14T09:31:03.631Z,3.60
2018-09-14T09:32:07.803Z,4.65
2018-09-14T09:33:12.017Z,5.15
2018-09-14T09:34:16.249Z,4.28
2018-09-14T09:35:20.438Z,4.30
2018-09-14T09:36:24.668Z,4.12
2018-09-14T09:37:28.883Z,2.95
2018-09-14T09:38:33.572Z,4.10
2018-09-14T09:39:38.223Z,3.15
2018-09-14T09:40:42.451Z,2.95
2018-09-14T09:41:46.683Z,3.10
2018-09-14T09:42:50.912Z,3.47
2018-09-14T09:43:55.131Z,2.92
2018-09-14T09:44:59.264Z,4.00
2018-09-14T09:46:03.473Z,3.10
2018-09-14T09:47:07.698Z,3.47
2018-09-14T09:48:11.869Z,2.85
2018-09-14T09:49:16.833Z,2.87
2018-09-14T09:50:21.021Z,2.83
2018-09-14T09:51:25.129Z,2.85
2018-09-14T09:52:29.410Z,3.45
2018-09-14T09:53:33.681Z,2.58
2018-09-14T09:54:37.864Z,2.80
2018-09-14T09:55:42.045Z,2.65
2018-09-14T09:56:46.556Z,2.83
2018-09-14T09:57:50.690Z,2.80
2018-09-14T09:58:54.762Z,2.72
2018-09-14T09:59:58.973Z,2.52
2018-09-14T10:01:08.470Z,2.55
2018-09-14T10:02:17.914Z,2.87
2018-09-14T10:03:27.394Z,2.70
2018-09-14T10:04:32.398Z,3.12
2018-09-14T10:05:41.894Z,2.98
2018-09-14T10:06:45.948Z,3.12
2018-09-14T10:07:50.233Z,3.00
2018-09-14T10:08:55.425Z,2.77
2018-09-14T10:09:59.597Z,3.20
2018-09-14T10:11:04.324Z,2.90
2018-09-14T10:12:08.421Z,3.42
2018-09-14T10:13:12.657Z,2.87
2018-09-14T10:14:16.802Z,2.90
2018-09-14T10:15:20.886Z,2.95
2018-09-14T10:16:25.025Z,2.80
2018-09-14T10:17:29.198Z,2.87
2018-09-14T10:18:33.328Z,3.10
2018-09-14T10:19:37.904Z,2.87
2018-09-14T10:20:42.052Z,3.00
2018-09-14T10:21:46.761Z,2.80
2018-09-14T10:22:51.015Z,7.60
2018-09-14T10:23:55.201Z,5.87
2018-09-14T10:24:59.361Z,3.50
2018-09-14T10:26:03.490Z,3.23
2018-09-14T10:27:07.712Z,3.10
2018-09-14T10:28:11.826Z,3.00
2018-09-14T10:29:16.038Z,3.67
2018-09-14T10:30:20.167Z,2.70
2018-09-14T10:31:24.575Z,2.53
2018-09-14T10:32:28.756Z,2.73
2018-09-14T10:33:32.983Z,2.83
2018-09-14T10:34:37.263Z,3.60
2018-09-14T10:35:41.579Z,2.63
2018-09-14T10:36:45.704Z,2.97
2018-09-14T10:37:49.874Z,2.60
2018-09-14T10:38:54.021Z,2.50
2018-09-14T10:39:58.263Z,2.63
2018-09-14T10:41:02.679Z,2.80
2018-09-14T10:42:06.914Z,2.80
2018-09-14T10:43:11.047Z,2.60
2018-09-14T10:44:15.140Z,3.00
2018-09-14T10:45:19.532Z,2.60
2018-09-14T10:46:23.501Z,2.60
2018-09-14T10:47:27.620Z,2.77
2018-09-14T10:48:31.750Z,3.00
2018-09-14T10:49:35.838Z,2.50
2018-09-14T10:50:39.934Z,2.53
2018-09-14T10:51:44.033Z,2.50
2018-09-14T10:52:48.226Z,2.77
2018-09-14T10:53:52.292Z,2.50
2018-09-14T10:54:56.478Z,2.40
2018-09-14T10:56:00.580Z,2.73
2018-09-14T10:57:04.723Z,2.50
2018-09-14T10:58:08.820Z,1.90
2018-09-14T10:59:12.978Z,2.37
2018-09-14T11:00:17.187Z,2.10
2018-09-14T11:01:21.327Z,2.50
2018-09-14T11:02:25.435Z,3.27
2018-09-14T11:03:29.594Z,2.70
2018-09-14T11:04:33.973Z,3.37
2018-09-14T11:05:38.032Z,2.83
2018-09-14T11:06:42.175Z,2.60
2018-09-14T11:07:46.334Z,3.07
2018-09-14T11:08:50.466Z,2.53
2018-09-14T11:09:54.650Z,2.33
2018-09-14T11:10:58.823Z,2.00
2018-09-14T11:12:02.923Z,2.90
2018-09-14T11:13:07.120Z,2.13
2018-09-14T11:14:11.572Z,2.10
2018-09-14T11:15:15.848Z,1.90
2018-09-14T11:16:19.993Z,2.10
2018-09-14T11:17:24.171Z,2.33
2018-09-14T11:18:28.531Z,2.00
2018-09-14T11:19:32.705Z,2.23
2018-09-14T11:20:36.959Z,1.87
2018-09-14T11:21:41.014Z,2.07
2018-09-14T11:22:45.327Z,2.60
2018-09-14T11:23:49.506Z,2.07
2018-09-14T11:24:53.741Z,2.20
2018-09-14T11:25:57.933Z,2.23
2018-09-14T11:27:02.169Z,2.27
2018-09-14T11:28:06.460Z,2.57
2018-09-14T11:29:10.717Z,2.30
2018-09-14T11:30:15.007Z,2.60
2018-09-14T11:31:23.625Z,2.40
2018-09-14T11:32:28.335Z,2.70
2018-09-14T11:33:32.332Z,2.43
2018-09-14T11:34:36.489Z,3.10
2018-09-14T11:35:40.606Z,3.47
2018-09-14T11:36:44.859Z,2.80
2018-09-14T11:37:49.076Z,2.60
2018-09-14T11:38:53.332Z,2.33
2018-09-14T11:39:57.499Z,2.00
2018-09-14T11:41:01.706Z,2.73
2018-09-14T11:42:05.955Z,2.77
2018-09-14T11:43:10.086Z,2.50
2018-09-14T11:44:14.268Z,2.53
2018-09-14T11:45:18.396Z,2.90
2018-09-14T11:46:22.635Z,2.40
2018-09-14T11:47:26.844Z,2.50
2018-09-14T11:48:31.127Z,2.70
2018-09-14T11:49:35.557Z,2.87
2018-09-14T11:50:39.745Z,2.77
2018-09-14T11:51:43.925Z,2.60
2018-09-14T11:52:48.055Z,2.17
2018-09-14T11:53:52.172Z,2.40
2018-09-14T11:54:56.344Z,1.97
2018-09-14T11:56:00.522Z,2.43
2018-09-14T11:57:04.720Z,2.13
2018-09-14T11:58:08.965Z,2.30
2018-09-14T11:59:13.139Z,2.50
2018-09-14T12:00:17.300Z,2.20
2018-09-14T12:01:21.505Z,2.20
2018-09-14T12:02:25.724Z,2.80
2018-09-14T12:03:29.988Z,2.23
2018-09-14T12:04:34.174Z,2.63
2018-09-14T12:05:38.406Z,2.00
2018-09-14T12:06:42.784Z,2.37
2018-09-14T12:07:46.947Z,2.30
2018-09-14T12:08:51.111Z,2.30
2018-09-14T12:09:55.350Z,2.20
2018-09-14T12:10:59.630Z,1.90
2018-09-14T12:12:03.824Z,2.30
2018-09-14T12:13:07.993Z,2.80
2018-09-14T12:14:12.280Z,2.37
2018-09-14T12:15:16.423Z,2.37
2018-09-14T12:16:20.610Z,3.00
2018-09-14T12:17:24.716Z,2.90
2018-09-14T12:18:29.101Z,2.67
2018-09-14T12:19:33.226Z,2.30
2018-09-14T12:20:37.382Z,2.43
2018-09-14T12:21:41.560Z,2.57
2018-09-14T12:22:45.766Z,2.33
2018-09-14T12:23:49.896Z,2.20
2018-09-14T12:24:54.068Z,2.30
2018-09-14T12:25:58.394Z,2.10
2018-09-14T12:27:02.521Z,2.03
2018-09-14T12:28:07.887Z,2.00
2018-09-14T12:29:11.932Z,2.17
2018-09-14T12:30:15.992Z,2.30
2018-09-14T12:31:20.149Z,1.90
2018-09-14T12:32:24.006Z,2.10
2018-09-14T12:33:28.064Z,4.50
2018-09-14T12:34:32.214Z,1.90
2018-09-14T12:35:36.389Z,2.00
2018-09-14T12:36:40.461Z,2.20
2018-09-14T12:37:44.510Z,1.77
2018-09-14T12:38:48.601Z,2.10
2018-09-14T12:39:52.740Z,1.80
2018-09-14T12:40:56.784Z,1.80
2018-09-14T12:42:00.673Z,1.87
2018-09-14T12:43:04.664Z,2.00
2018-09-14T12:44:08.857Z,2.03
2018-09-14T12:45:12.984Z,2.30
2018-09-14T12:46:17.176Z,2.00
2018-09-14T12:47:21.452Z,1.65
2018-09-14T12:48:25.657Z,1.97
2018-09-14T12:49:29.954Z,1.85
2018-09-14T12:50:34.085Z,2.30
2018-09-14T12:51:38.242Z,2.00
2018-09-14T12:52:42.480Z,2.10
2018-09-14T12:53:46.592Z,1.87
2018-09-14T12:54:50.764Z,2.23
2018-09-14T12:55:55.005Z,1.83
2018-09-14T12:56:59.166Z,1.83
2018-09-14T12:58:03.342Z,1.83
2018-09-14T12:59:07.537Z,1.90
2018-09-14T13:00:12.232Z,1.70
2018-09-14T13:01:16.555Z,1.83
2018-09-14T13:02:20.657Z,1.80
2018-09-14T13:03:24.980Z,1.93
2018-09-14T13:04:29.172Z,2.00
2018-09-14T13:05:33.407Z,2.47
2018-09-14T13:06:37.668Z,2.00
2018-09-14T13:07:42.352Z,2.30
2018-09-14T13:08:53.111Z,2.03
2018-09-14T13:09:57.345Z,1.80
2018-09-14T13:11:01.556Z,1.80
2018-09-14T13:12:05.944Z,2.03
2018-09-14T13:13:10.566Z,2.30
2018-09-14T13:14:19.519Z,1.73
2018-09-14T13:15:23.740Z,2.30
2018-09-14T13:16:28.210Z,1.87
2018-09-14T13:17:32.576Z,2.10
2018-09-14T13:18:36.834Z,2.10
2018-09-14T13:19:41.448Z,2.37
2018-09-14T13:20:45.580Z,2.07
2018-09-14T13:21:50.038Z,4.07
2018-09-14T13:22:54.685Z,1.93
2018-09-14T13:23:58.830Z,1.80
2018-09-14T13:25:03.042Z,1.90
2018-09-14T13:26:07.317Z,2.03
2018-09-14T13:27:11.665Z,2.07
2018-09-14T13:28:15.852Z,1.90
2018-09-14T13:29:20.063Z,1.97
2018-09-14T13:30:24.629Z,2.30
2018-09-14T13:31:29.907Z,2.70
2018-09-14T13:32:35.503Z,1.70
2018-09-14T13:33:39.754Z,2.10
2018-09-14T13:34:43.902Z,2.10
2018-09-14T13:35:48.505Z,2.20
2018-09-14T13:36:52.833Z,2.33
2018-09-14T13:37:57.047Z,2.10
2018-09-14T13:39:01.464Z,2.00
2018-09-14T13:40:06.074Z,1.90
2018-09-14T13:41:10.377Z,1.70
2018-09-14T13:42:14.598Z,1.93
2018-09-14T13:43:19.787Z,1.90
2018-09-14T13:44:24.952Z,2.00
2018-09-14T13:45:29.787Z,2.30
2018-09-14T13:46:34.297Z,1.87
2018-09-14T13:47:38.405Z,2.23
2018-09-14T13:48:42.781Z,2.20
2018-09-14T13:49:47.244Z,2.40
2018-09-14T13:50:51.401Z,3.20
2018-09-14T13:51:55.656Z,1.97
2018-09-14T13:52:59.842Z,2.03
2018-09-14T13:54:03.972Z,2.13
2018-09-14T13:55:08.120Z,2.20
2018-09-14T13:56:12.382Z,2.20
2018-09-14T13:57:16.637Z,2.63
2018-09-14T13:58:20.822Z,2.10
2018-09-14T13:59:24.986Z,2.20
2018-09-14T14:00:29.191Z,2.13
2018-09-14T14:01:33.588Z,1.93
2018-09-14T14:02:38.004Z,2.30
2018-09-14T14:03:42.159Z,2.43
2018-09-14T14:04:46.329Z,2.40
2018-09-14T14:05:50.465Z,2.33
2018-09-14T14:06:55.026Z,2.00
2018-09-14T14:07:59.250Z,1.97
2018-09-14T14:09:03.775Z,2.00
2018-09-14T14:10:08.140Z,2.40
2018-09-14T14:11:12.408Z,2.37
2018-09-14T14:12:16.508Z,2.57
2018-09-14T14:13:20.727Z,2.07
2018-09-14T14:14:31.336Z,2.00
2018-09-14T14:15:35.470Z,2.20